sensor_id;sensor_type;location;lat;lon;timestamp;temperature;humidity
16384;DHT22;8301;51.440;6.610;2023-07-13T00:01:33;15.70;1.00
16384;DHT22;8301;51.440;6.610;2023-07-13T00:04:00;15.70;1.00
16384;DHT22;8301;51.440;6.610;2023-07-13T00:06:27;15.60;1.00
16384;DHT22;8301;51.440;6.610;2023-07-13T00:08:55;15.60;1.00
16384;DHT22;8301;51.440;6.610;2023-07-13T00:11:24;15.50;1.00
16384;DHT22;8301;51.440;6.610;2023-07-13T00:13:54;15.50;1.00
16384;DHT22;8301;51.440;6.610;2023-07-13T00:16:21;15.50;1.00
16384;DHT22;8301;51.440;6.610;2023-07-13T00:18:48;15.40;1.00
16384;DHT22;8301;51.440;6.610;2023-07-13T00:21:15;15.40;1.00
16384;DHT22;8301;51.440;6.610;2023-07-13T00:23:42;15.40;1.00
16384;DHT22;8301;51.440;6.610;2023-07-13T00:26:10;15.40;1.00
16384;DHT22;8301;51.440;6.610;2023-07-13T00:40:58;15.20;1.00
16384;DHT22;8301;51.440;6.610;2023-07-13T00:43:26;15.10;1.00
16384;DHT22;8301;51.440;6.610;2023-07-13T00:48:23;15.10;1.00
16384;DHT22;8301;51.440;6.610;2023-07-13T00:50:50;15.10;1.00
16384;DHT22;8301;51.440;6.610;2023-07-13T00:53:18;15.10;1.00
16384;DHT22;8301;51.440;6.610;2023-07-13T00:55:49;15.00;1.00
16384;DHT22;8301;51.440;6.610;2023-07-13T00:58:18;14.90;66.90
16384;DHT22;8301;51.440;6.610;2023-07-13T01:00:45;14.90;99.90
16384;DHT22;8301;51.440;6.610;2023-07-13T01:03:13;14.80;99.90
16384;DHT22;8301;51.440;6.610;2023-07-13T01:05:40;14.90;1.00
16384;DHT22;8301;51.440;6.610;2023-07-13T01:08:07;14.80;99.90
16384;DHT22;8301;51.440;6.610;2023-07-13T01:10:34;14.70;99.90
16384;DHT22;8301;51.440;6.610;2023-07-13T01:13:03;14.70;99.90
16384;DHT22;8301;51.440;6.610;2023-07-13T01:15:42;14.80;31.20
16384;DHT22;8301;51.440;6.610;2023-07-13T01:18:11;14.80;84.90
16384;DHT22;8301;51.440;6.610;2023-07-13T01:20:39;14.70;99.90
16384;DHT22;8301;51.440;6.610;2023-07-13T01:23:07;14.80;57.50
16384;DHT22;8301;51.440;6.610;2023-07-13T01:25:34;14.80;99.90
16384;DHT22;8301;51.440;6.610;2023-07-13T01:28:02;14.80;99.90
16384;DHT22;8301;51.440;6.610;2023-07-13T01:30:29;14.80;99.90
16384;DHT22;8301;51.440;6.610;2023-07-13T01:32:58;14.80;99.90
16384;DHT22;8301;51.440;6.610;2023-07-13T01:35:25;14.80;99.90
16384;DHT22;8301;51.440;6.610;2023-07-13T01:37:53;14.70;99.90
16384;DHT22;8301;51.440;6.610;2023-07-13T01:40:20;14.70;1.00
16384;DHT22;8301;51.440;6.610;2023-07-13T01:42:47;14.70;99.90
16384;DHT22;8301;51.440;6.610;2023-07-13T01:45:15;14.70;1.00
16384;DHT22;8301;51.440;6.610;2023-07-13T01:47:41;14.60;1.00
16384;DHT22;8301;51.440;6.610;2023-07-13T01:50:09;14.60;1.00
16384;DHT22;8301;51.440;6.610;2023-07-13T01:52:36;14.60;1.00
16384;DHT22;8301;51.440;6.610;2023-07-13T01:55:03;14.60;1.00
16384;DHT22;8301;51.440;6.610;2023-07-13T01:57:30;14.60;1.00
16384;DHT22;8301;51.440;6.610;2023-07-13T01:59:57;14.60;1.00
16384;DHT22;8301;51.440;6.610;2023-07-13T02:02:23;14.70;1.00
16384;DHT22;8301;51.440;6.610;2023-07-13T02:04:50;14.70;1.00
16384;DHT22;8301;51.440;6.610;2023-07-13T02:07:17;14.60;1.00
16384;DHT22;8301;51.440;6.610;2023-07-13T02:09:44;14.60;1.00
16384;DHT22;8301;51.440;6.610;2023-07-13T02:12:11;14.50;1.00
16384;DHT22;8301;51.440;6.610;2023-07-13T02:14:37;14.50;1.00
16384;DHT22;8301;51.440;6.610;2023-07-13T02:17:06;14.50;59.80
16384;DHT22;8301;51.440;6.610;2023-07-13T02:19:39;14.40;99.90
16384;DHT22;8301;51.440;6.610;2023-07-13T02:22:06;14.40;72.60
16384;DHT22;8301;51.440;6.610;2023-07-13T02:24:33;14.40;99.90
16384;DHT22;8301;51.440;6.610;2023-07-13T02:27:00;14.40;1.00
16384;DHT22;8301;51.440;6.610;2023-07-13T02:29:27;14.30;1.00
16384;DHT22;8301;51.440;6.610;2023-07-13T02:31:53;14.30;99.90
16384;DHT22;8301;51.440;6.610;2023-07-13T02:34:20;14.40;1.00
16384;DHT22;8301;51.440;6.610;2023-07-13T02:36:47;14.30;99.90
16384;DHT22;8301;51.440;6.610;2023-07-13T02:39:14;14.40;1.00
16384;DHT22;8301;51.440;6.610;2023-07-13T02:41:41;14.40;1.00
16384;DHT22;8301;51.440;6.610;2023-07-13T02:44:08;14.30;1.00
16384;DHT22;8301;51.440;6.610;2023-07-13T02:46:35;14.30;1.00
16384;DHT22;8301;51.440;6.610;2023-07-13T02:49:03;14.20;1.00
16384;DHT22;8301;51.440;6.610;2023-07-13T02:51:30;14.20;99.90
16384;DHT22;8301;51.440;6.610;2023-07-13T02:53:58;14.20;99.90
16384;DHT22;8301;51.440;6.610;2023-07-13T02:56:26;14.30;1.00
16384;DHT22;8301;51.440;6.610;2023-07-13T02:58:53;14.20;1.00
16384;DHT22;8301;51.440;6.610;2023-07-13T03:01:21;14.20;1.00
16384;DHT22;8301;51.440;6.610;2023-07-13T03:03:48;14.20;1.00
16384;DHT22;8301;51.440;6.610;2023-07-13T03:06:17;14.20;1.00
16384;DHT22;8301;51.440;6.610;2023-07-13T03:08:44;14.10;99.90
16384;DHT22;8301;51.440;6.610;2023-07-13T03:11:12;14.20;1.00
16384;DHT22;8301;51.440;6.610;2023-07-13T03:13:39;14.30;64.20
16384;DHT22;8301;51.440;6.610;2023-07-13T03:16:07;14.20;1.00
16384;DHT22;8301;51.440;6.610;2023-07-13T03:18:34;14.10;99.90
16384;DHT22;8301;51.440;6.610;2023-07-13T03:21:01;14.20;1.00
16384;DHT22;8301;51.440;6.610;2023-07-13T03:23:28;14.10;99.90
16384;DHT22;8301;51.440;6.610;2023-07-13T03:26:05;14.20;1.00
16384;DHT22;8301;51.440;6.610;2023-07-13T03:28:32;14.20;1.00
16384;DHT22;8301;51.440;6.610;2023-07-13T03:31:00;14.20;1.00
16384;DHT22;8301;51.440;6.610;2023-07-13T03:33:26;14.30;99.90
16384;DHT22;8301;51.440;6.610;2023-07-13T03:35:53;14.20;1.00
16384;DHT22;8301;51.440;6.610;2023-07-13T03:38:21;14.20;1.00
16384;DHT22;8301;51.440;6.610;2023-07-13T03:40:48;14.20;1.00
16384;DHT22;8301;51.440;6.610;2023-07-13T03:43:15;14.20;99.90
16384;DHT22;8301;51.440;6.610;2023-07-13T03:45:42;14.20;1.00
16384;DHT22;8301;51.440;6.610;2023-07-13T03:48:09;14.20;1.00
16384;DHT22;8301;51.440;6.610;2023-07-13T03:50:36;14.20;1.00
16384;DHT22;8301;51.440;6.610;2023-07-13T03:53:03;14.20;1.00
16384;DHT22;8301;51.440;6.610;2023-07-13T03:55:30;14.30;99.90
16384;DHT22;8301;51.440;6.610;2023-07-13T03:57:58;14.30;1.00
16384;DHT22;8301;51.440;6.610;2023-07-13T04:00:25;14.40;99.90
16384;DHT22;8301;51.440;6.610;2023-07-13T04:02:52;14.30;99.90
16384;DHT22;8301;51.440;6.610;2023-07-13T04:05:19;14.30;99.90
16384;DHT22;8301;51.440;6.610;2023-07-13T04:07:46;14.30;1.00
16384;DHT22;8301;51.440;6.610;2023-07-13T04:10:13;14.30;1.00
16384;DHT22;8301;51.440;6.610;2023-07-13T04:12:39;14.30;1.00
16384;DHT22;8301;51.440;6.610;2023-07-13T04:15:07;14.30;1.00
16384;DHT22;8301;51.440;6.610;2023-07-13T04:17:34;14.30;99.90
16384;DHT22;8301;51.440;6.610;2023-07-13T04:20:01;14.40;28.70
16384;DHT22;8301;51.440;6.610;2023-07-13T04:22:27;14.40;1.00
16384;DHT22;8301;51.440;6.610;2023-07-13T04:24:55;14.40;99.90
16384;DHT22;8301;51.440;6.610;2023-07-13T04:27:22;14.40;99.90
16384;DHT22;8301;51.440;6.610;2023-07-13T04:29:49;14.50;99.90
16384;DHT22;8301;51.440;6.610;2023-07-13T04:32:16;14.40;1.00
16384;DHT22;8301;51.440;6.610;2023-07-13T04:34:42;14.50;99.90
16384;DHT22;8301;51.440;6.610;2023-07-13T04:37:09;14.50;1.00
16384;DHT22;8301;51.440;6.610;2023-07-13T04:39:36;14.50;1.00
16384;DHT22;8301;51.440;6.610;2023-07-13T04:42:03;14.60;37.90
16384;DHT22;8301;51.440;6.610;2023-07-13T04:44:30;14.50;1.00
16384;DHT22;8301;51.440;6.610;2023-07-13T04:46:57;14.60;1.00
16384;DHT22;8301;51.440;6.610;2023-07-13T04:49:23;14.70;1.00
16384;DHT22;8301;51.440;6.610;2023-07-13T04:51:50;14.70;1.00
16384;DHT22;8301;51.440;6.610;2023-07-13T04:54:20;14.80;99.90
16384;DHT22;8301;51.440;6.610;2023-07-13T04:56:47;14.90;1.00
16384;DHT22;8301;51.440;6.610;2023-07-13T04:59:14;14.90;1.00
16384;DHT22;8301;51.440;6.610;2023-07-13T05:01:41;15.00;1.00
16384;DHT22;8301;51.440;6.610;2023-07-13T05:04:08;15.00;99.90
16384;DHT22;8301;51.440;6.610;2023-07-13T05:06:35;15.10;1.00
16384;DHT22;8301;51.440;6.610;2023-07-13T05:09:02;15.20;1.00
16384;DHT22;8301;51.440;6.610;2023-07-13T05:11:29;15.40;1.00
16384;DHT22;8301;51.440;6.610;2023-07-13T05:13:56;15.60;1.00
16384;DHT22;8301;51.440;6.610;2023-07-13T05:16:25;15.80;1.00
16384;DHT22;8301;51.440;6.610;2023-07-13T05:18:54;15.80;1.00
16384;DHT22;8301;51.440;6.610;2023-07-13T05:21:22;16.10;99.90
16384;DHT22;8301;51.440;6.610;2023-07-13T05:23:49;16.00;99.90
16384;DHT22;8301;51.440;6.610;2023-07-13T05:26:24;16.20;99.90
16384;DHT22;8301;51.440;6.610;2023-07-13T05:28:52;16.10;99.90
16384;DHT22;8301;51.440;6.610;2023-07-13T05:31:19;16.30;99.90
16384;DHT22;8301;51.440;6.610;2023-07-13T05:33:46;16.40;1.00
16384;DHT22;8301;51.440;6.610;2023-07-13T05:36:13;16.60;1.00
16384;DHT22;8301;51.440;6.610;2023-07-13T05:38:40;16.50;1.00
16384;DHT22;8301;51.440;6.610;2023-07-13T05:41:07;16.60;1.00
16384;DHT22;8301;51.440;6.610;2023-07-13T05:43:34;16.40;1.00
16384;DHT22;8301;51.440;6.610;2023-07-13T05:46:04;16.60;1.00
16384;DHT22;8301;51.440;6.610;2023-07-13T05:48:31;16.80;1.00
16384;DHT22;8301;51.440;6.610;2023-07-13T05:50:59;16.80;1.00
16384;DHT22;8301;51.440;6.610;2023-07-13T05:53:27;16.70;1.00
16384;DHT22;8301;51.440;6.610;2023-07-13T05:55:54;16.90;1.00
16384;DHT22;8301;51.440;6.610;2023-07-13T05:58:21;17.00;1.00
16384;DHT22;8301;51.440;6.610;2023-07-13T06:00:48;17.10;1.00
16384;DHT22;8301;51.440;6.610;2023-07-13T06:03:21;17.10;1.00
16384;DHT22;8301;51.440;6.610;2023-07-13T06:05:48;17.00;1.00
16384;DHT22;8301;51.440;6.610;2023-07-13T06:08:14;17.10;1.00
16384;DHT22;8301;51.440;6.610;2023-07-13T06:10:41;17.20;1.00
16384;DHT22;8301;51.440;6.610;2023-07-13T06:13:11;17.00;1.00
16384;DHT22;8301;51.440;6.610;2023-07-13T06:15:38;17.10;1.00
16384;DHT22;8301;51.440;6.610;2023-07-13T06:18:05;17.30;1.00
16384;DHT22;8301;51.440;6.610;2023-07-13T06:20:33;17.20;1.00
16384;DHT22;8301;51.440;6.610;2023-07-13T06:23:01;17.30;1.00
16384;DHT22;8301;51.440;6.610;2023-07-13T06:25:28;17.40;1.00
16384;DHT22;8301;51.440;6.610;2023-07-13T06:27:54;17.50;1.00
16384;DHT22;8301;51.440;6.610;2023-07-13T06:30:21;17.50;1.00
16384;DHT22;8301;51.440;6.610;2023-07-13T06:32:48;17.50;1.00
16384;DHT22;8301;51.440;6.610;2023-07-13T06:35:15;17.70;1.00
16384;DHT22;8301;51.440;6.610;2023-07-13T06:37:49;17.70;1.00
16384;DHT22;8301;51.440;6.610;2023-07-13T06:40:21;17.90;99.90
16384;DHT22;8301;51.440;6.610;2023-07-13T06:42:48;17.50;1.00
16384;DHT22;8301;51.440;6.610;2023-07-13T06:45:16;17.50;1.00
16384;DHT22;8301;51.440;6.610;2023-07-13T06:47:45;17.40;1.00
16384;DHT22;8301;51.440;6.610;2023-07-13T06:50:12;17.20;1.00
16384;DHT22;8301;51.440;6.610;2023-07-13T06:52:38;17.30;27.40
16384;DHT22;8301;51.440;6.610;2023-07-13T06:55:06;17.10;7.10
16384;DHT22;8301;51.440;6.610;2023-07-13T06:57:34;17.20;1.00
16384;DHT22;8301;51.440;6.610;2023-07-13T07:00:01;17.20;1.00
16384;DHT22;8301;51.440;6.610;2023-07-13T07:02:28;17.30;1.00
16384;DHT22;8301;51.440;6.610;2023-07-13T07:04:55;17.20;1.00
16384;DHT22;8301;51.440;6.610;2023-07-13T07:07:23;17.20;1.00
16384;DHT22;8301;51.440;6.610;2023-07-13T07:09:50;17.20;1.00
16384;DHT22;8301;51.440;6.610;2023-07-13T07:12:17;17.50;1.00
16384;DHT22;8301;51.440;6.610;2023-07-13T07:14:44;17.60;1.00
16384;DHT22;8301;51.440;6.610;2023-07-13T07:17:11;17.90;1.00
16384;DHT22;8301;51.440;6.610;2023-07-13T07:19:38;17.80;1.00
16384;DHT22;8301;51.440;6.610;2023-07-13T07:22:05;17.80;1.00
16384;DHT22;8301;51.440;6.610;2023-07-13T07:24:31;17.60;1.00
16384;DHT22;8301;51.440;6.610;2023-07-13T07:26:58;17.70;1.00
16384;DHT22;8301;51.440;6.610;2023-07-13T07:29:25;17.90;1.00
16384;DHT22;8301;51.440;6.610;2023-07-13T07:31:53;18.00;1.00
16384;DHT22;8301;51.440;6.610;2023-07-13T07:34:20;17.90;1.00
16384;DHT22;8301;51.440;6.610;2023-07-13T07:36:47;17.70;1.00
16384;DHT22;8301;51.440;6.610;2023-07-13T07:39:14;17.70;1.00
16384;DHT22;8301;51.440;6.610;2023-07-13T07:41:40;17.50;1.00
16384;DHT22;8301;51.440;6.610;2023-07-13T07:44:07;17.70;1.00
16384;DHT22;8301;51.440;6.610;2023-07-13T07:46:35;17.70;1.00
16384;DHT22;8301;51.440;6.610;2023-07-13T07:49:02;17.60;1.00
16384;DHT22;8301;51.440;6.610;2023-07-13T07:51:29;17.60;1.00
16384;DHT22;8301;51.440;6.610;2023-07-13T07:53:56;17.60;1.00
16384;DHT22;8301;51.440;6.610;2023-07-13T07:56:25;17.70;1.00
16384;DHT22;8301;51.440;6.610;2023-07-13T07:58:52;17.60;1.00
16384;DHT22;8301;51.440;6.610;2023-07-13T08:01:19;17.80;1.00
16384;DHT22;8301;51.440;6.610;2023-07-13T08:03:46;17.90;1.00
16384;DHT22;8301;51.440;6.610;2023-07-13T08:06:12;18.00;1.00
16384;DHT22;8301;51.440;6.610;2023-07-13T08:08:39;18.10;1.00
16384;DHT22;8301;51.440;6.610;2023-07-13T08:11:06;18.00;99.90
16384;DHT22;8301;51.440;6.610;2023-07-13T08:13:34;18.20;1.00
16384;DHT22;8301;51.440;6.610;2023-07-13T08:16:03;18.20;99.90
16384;DHT22;8301;51.440;6.610;2023-07-13T08:18:30;18.10;1.00
16384;DHT22;8301;51.440;6.610;2023-07-13T08:20:57;18.30;99.90
16384;DHT22;8301;51.440;6.610;2023-07-13T08:23:25;18.40;99.90
16384;DHT22;8301;51.440;6.610;2023-07-13T08:25:52;18.50;99.90
16384;DHT22;8301;51.440;6.610;2023-07-13T08:28:19;18.60;99.90
16384;DHT22;8301;51.440;6.610;2023-07-13T08:30:47;18.80;99.90
16384;DHT22;8301;51.440;6.610;2023-07-13T08:33:16;18.90;99.90
16384;DHT22;8301;51.440;6.610;2023-07-13T08:35:45;18.90;99.90
16384;DHT22;8301;51.440;6.610;2023-07-13T08:38:11;18.90;99.90
16384;DHT22;8301;51.440;6.610;2023-07-13T08:40:38;18.80;99.90
16384;DHT22;8301;51.440;6.610;2023-07-13T08:43:06;18.80;99.90
16384;DHT22;8301;51.440;6.610;2023-07-13T08:45:47;19.00;99.90
16384;DHT22;8301;51.440;6.610;2023-07-13T08:48:38;19.10;99.90
16384;DHT22;8301;51.440;6.610;2023-07-13T08:50:55;19.20;99.90
16384;DHT22;8301;51.440;6.610;2023-07-13T08:53:21;19.20;99.90
16384;DHT22;8301;51.440;6.610;2023-07-13T08:55:48;19.40;99.90
16384;DHT22;8301;51.440;6.610;2023-07-13T08:58:16;19.60;99.90
16384;DHT22;8301;51.440;6.610;2023-07-13T09:03:26;19.80;99.90
16384;DHT22;8301;51.440;6.610;2023-07-13T09:05:54;19.90;99.90
16384;DHT22;8301;51.440;6.610;2023-07-13T09:11:11;20.00;99.90
16384;DHT22;8301;51.440;6.610;2023-07-13T09:13:46;20.10;60.60
16384;DHT22;8301;51.440;6.610;2023-07-13T09:16:08;19.80;99.90
16384;DHT22;8301;51.440;6.610;2023-07-13T09:18:38;19.90;95.80
16384;DHT22;8301;51.440;6.610;2023-07-13T09:21:12;20.20;32.70
16384;DHT22;8301;51.440;6.610;2023-07-13T09:23:40;20.10;99.90
16384;DHT22;8301;51.440;6.610;2023-07-13T09:26:22;20.00;99.90
16384;DHT22;8301;51.440;6.610;2023-07-13T09:28:55;20.00;82.70
16384;DHT22;8301;51.440;6.610;2023-07-13T09:34:00;19.40;99.90
16384;DHT22;8301;51.440;6.610;2023-07-13T09:36:30;19.60;99.90
16384;DHT22;8301;51.440;6.610;2023-07-13T09:38:59;19.70;99.90
16384;DHT22;8301;51.440;6.610;2023-07-13T09:41:47;19.70;99.90
16384;DHT22;8301;51.440;6.610;2023-07-13T09:44:12;19.90;99.90
16384;DHT22;8301;51.440;6.610;2023-07-13T09:46:44;19.80;22.00
16384;DHT22;8301;51.440;6.610;2023-07-13T09:49:09;19.80;51.10
16384;DHT22;8301;51.440;6.610;2023-07-13T09:51:40;20.00;99.90
16384;DHT22;8301;51.440;6.610;2023-07-13T09:54:05;20.20;99.90
16384;DHT22;8301;51.440;6.610;2023-07-13T09:56:32;20.30;1.00
16384;DHT22;8301;51.440;6.610;2023-07-13T09:58:59;20.60;1.00
16384;DHT22;8301;51.440;6.610;2023-07-13T10:01:39;21.00;1.00
16384;DHT22;8301;51.440;6.610;2023-07-13T10:04:10;20.90;1.00
16384;DHT22;8301;51.440;6.610;2023-07-13T10:06:31;21.30;1.00
16384;DHT22;8301;51.440;6.610;2023-07-13T10:08:58;21.30;1.00
16384;DHT22;8301;51.440;6.610;2023-07-13T10:11:32;21.60;1.00
16384;DHT22;8301;51.440;6.610;2023-07-13T10:14:01;21.50;1.00
16384;DHT22;8301;51.440;6.610;2023-07-13T10:19:24;21.80;1.00
16384;DHT22;8301;51.440;6.610;2023-07-13T10:21:55;21.30;1.00
16384;DHT22;8301;51.440;6.610;2023-07-13T10:24:23;21.30;1.00
16384;DHT22;8301;51.440;6.610;2023-07-13T10:27:10;21.40;1.00
16384;DHT22;8301;51.440;6.610;2023-07-13T10:29:37;21.70;1.00
16384;DHT22;8301;51.440;6.610;2023-07-13T10:32:08;21.50;1.00
16384;DHT22;8301;51.440;6.610;2023-07-13T10:34:33;21.10;1.00
16384;DHT22;8301;51.440;6.610;2023-07-13T10:36:59;21.10;1.00
16384;DHT22;8301;51.440;6.610;2023-07-13T10:39:28;21.50;1.00
16384;DHT22;8301;51.440;6.610;2023-07-13T10:42:04;21.80;1.00
16384;DHT22;8301;51.440;6.610;2023-07-13T10:44:40;22.30;1.00
16384;DHT22;8301;51.440;6.610;2023-07-13T10:47:08;22.30;1.00
16384;DHT22;8301;51.440;6.610;2023-07-13T10:49:36;23.00;1.00
16384;DHT22;8301;51.440;6.610;2023-07-13T10:52:03;22.50;1.00
16384;DHT22;8301;51.440;6.610;2023-07-13T10:54:31;22.70;1.00
16384;DHT22;8301;51.440;6.610;2023-07-13T10:57:20;22.90;1.00
16384;DHT22;8301;51.440;6.610;2023-07-13T10:59:27;22.60;1.00
16384;DHT22;8301;51.440;6.610;2023-07-13T11:01:56;22.60;1.00
16384;DHT22;8301;51.440;6.610;2023-07-13T11:04:24;22.60;1.00
16384;DHT22;8301;51.440;6.610;2023-07-13T11:06:59;22.50;1.00
16384;DHT22;8301;51.440;6.610;2023-07-13T11:09:36;22.30;1.00
16384;DHT22;8301;51.440;6.610;2023-07-13T11:12:10;22.10;1.00
16384;DHT22;8301;51.440;6.610;2023-07-13T11:14:42;22.00;1.00
16384;DHT22;8301;51.440;6.610;2023-07-13T11:19:44;22.40;1.00
16384;DHT22;8301;51.440;6.610;2023-07-13T11:22:13;23.10;1.00
16384;DHT22;8301;51.440;6.610;2023-07-13T11:24:56;23.10;1.00
16384;DHT22;8301;51.440;6.610;2023-07-13T11:27:25;23.10;1.00
16384;DHT22;8301;51.440;6.610;2023-07-13T11:29:50;23.10;1.00
16384;DHT22;8301;51.440;6.610;2023-07-13T11:32:24;22.90;1.00
16384;DHT22;8301;51.440;6.610;2023-07-13T11:34:53;22.50;1.00
16384;DHT22;8301;51.440;6.610;2023-07-13T11:37:20;22.70;1.00
16384;DHT22;8301;51.440;6.610;2023-07-13T11:39:48;22.40;1.00
16384;DHT22;8301;51.440;6.610;2023-07-13T11:42:18;22.80;1.00
16384;DHT22;8301;51.440;6.610;2023-07-13T11:44:50;23.10;1.00
16384;DHT22;8301;51.440;6.610;2023-07-13T11:47:21;22.70;1.00
16384;DHT22;8301;51.440;6.610;2023-07-13T11:49:52;22.40;1.00
16384;DHT22;8301;51.440;6.610;2023-07-13T11:52:19;22.50;1.00
16384;DHT22;8301;51.440;6.610;2023-07-13T11:54:48;22.60;1.00
16384;DHT22;8301;51.440;6.610;2023-07-13T11:59:45;22.90;1.00
16384;DHT22;8301;51.440;6.610;2023-07-13T12:02:14;22.50;1.00
16384;DHT22;8301;51.440;6.610;2023-07-13T12:04:41;22.40;1.00
16384;DHT22;8301;51.440;6.610;2023-07-13T12:07:17;22.50;1.00
16384;DHT22;8301;51.440;6.610;2023-07-13T12:09:40;22.40;1.00
16384;DHT22;8301;51.440;6.610;2023-07-13T12:12:13;22.80;1.00
16384;DHT22;8301;51.440;6.610;2023-07-13T12:14:43;22.80;1.00
16384;DHT22;8301;51.440;6.610;2023-07-13T12:17:18;22.70;1.00
16384;DHT22;8301;51.440;6.610;2023-07-13T12:19:41;22.50;1.00
16384;DHT22;8301;51.440;6.610;2023-07-13T12:22:08;22.60;1.00
16384;DHT22;8301;51.440;6.610;2023-07-13T12:24:36;22.30;1.00
16384;DHT22;8301;51.440;6.610;2023-07-13T12:27:04;22.20;1.00
16384;DHT22;8301;51.440;6.610;2023-07-13T12:29:31;21.80;1.00
16384;DHT22;8301;51.440;6.610;2023-07-13T12:31:58;21.60;1.00
16384;DHT22;8301;51.440;6.610;2023-07-13T12:34:26;21.70;1.00
16384;DHT22;8301;51.440;6.610;2023-07-13T12:36:54;21.70;1.00
16384;DHT22;8301;51.440;6.610;2023-07-13T12:44:40;21.50;1.00
16384;DHT22;8301;51.440;6.610;2023-07-13T12:47:13;21.30;1.00
16384;DHT22;8301;51.440;6.610;2023-07-13T12:49:43;21.10;1.00
16384;DHT22;8301;51.440;6.610;2023-07-13T12:52:15;21.00;8.30
16384;DHT22;8301;51.440;6.610;2023-07-13T12:54:51;20.80;1.00
16384;DHT22;8301;51.440;6.610;2023-07-13T12:57:13;20.90;1.00
16384;DHT22;8301;51.440;6.610;2023-07-13T12:59:39;21.10;1.00
16384;DHT22;8301;51.440;6.610;2023-07-13T13:04:57;21.70;1.00
16384;DHT22;8301;51.440;6.610;2023-07-13T13:07:24;22.00;1.00
16384;DHT22;8301;51.440;6.610;2023-07-13T13:09:51;22.20;1.00
16384;DHT22;8301;51.440;6.610;2023-07-13T13:12:22;22.30;1.00
16384;DHT22;8301;51.440;6.610;2023-07-13T13:14:50;22.40;1.00
16384;DHT22;8301;51.440;6.610;2023-07-13T13:17:23;22.50;1.00
16384;DHT22;8301;51.440;6.610;2023-07-13T13:19:53;22.90;1.00
16384;DHT22;8301;51.440;6.610;2023-07-13T13:22:20;22.90;1.00
16384;DHT22;8301;51.440;6.610;2023-07-13T13:24:47;23.30;1.00
16384;DHT22;8301;51.440;6.610;2023-07-13T13:27:19;23.20;1.00
16384;DHT22;8301;51.440;6.610;2023-07-13T13:29:48;23.30;1.00
16384;DHT22;8301;51.440;6.610;2023-07-13T13:32:17;23.50;1.00
16384;DHT22;8301;51.440;6.610;2023-07-13T13:34:45;23.90;1.00
16384;DHT22;8301;51.440;6.610;2023-07-13T13:37:21;23.90;1.00
16384;DHT22;8301;51.440;6.610;2023-07-13T13:39:40;23.70;1.00
16384;DHT22;8301;51.440;6.610;2023-07-13T13:42:08;23.60;1.00
16384;DHT22;8301;51.440;6.610;2023-07-13T13:44:35;23.70;1.00
16384;DHT22;8301;51.440;6.610;2023-07-13T13:47:02;23.60;1.00
16384;DHT22;8301;51.440;6.610;2023-07-13T13:49:29;23.80;1.00
16384;DHT22;8301;51.440;6.610;2023-07-13T13:51:56;23.90;1.00
16384;DHT22;8301;51.440;6.610;2023-07-13T13:54:25;23.70;1.00
16384;DHT22;8301;51.440;6.610;2023-07-13T13:56:52;23.70;1.00
16384;DHT22;8301;51.440;6.610;2023-07-13T13:59:19;23.20;1.00
16384;DHT22;8301;51.440;6.610;2023-07-13T14:01:47;22.70;1.00
16384;DHT22;8301;51.440;6.610;2023-07-13T14:04:18;22.20;1.00
16384;DHT22;8301;51.440;6.610;2023-07-13T14:06:45;22.30;1.00
16384;DHT22;8301;51.440;6.610;2023-07-13T14:09:13;22.40;1.00
16384;DHT22;8301;51.440;6.610;2023-07-13T14:11:41;22.40;1.00
16384;DHT22;8301;51.440;6.610;2023-07-13T14:14:12;22.60;1.00
16384;DHT22;8301;51.440;6.610;2023-07-13T14:16:39;22.40;1.00
16384;DHT22;8301;51.440;6.610;2023-07-13T14:19:10;22.20;1.00
16384;DHT22;8301;51.440;6.610;2023-07-13T14:21:36;22.10;1.00
16384;DHT22;8301;51.440;6.610;2023-07-13T14:24:03;22.00;1.00
16384;DHT22;8301;51.440;6.610;2023-07-13T14:26:30;21.90;1.00
16384;DHT22;8301;51.440;6.610;2023-07-13T14:28:59;21.90;1.00
16384;DHT22;8301;51.440;6.610;2023-07-13T14:31:27;21.60;1.00
16384;DHT22;8301;51.440;6.610;2023-07-13T14:33:56;21.70;1.00
16384;DHT22;8301;51.440;6.610;2023-07-13T14:36:28;21.80;1.00
16384;DHT22;8301;51.440;6.610;2023-07-13T14:39:01;21.60;1.00
16384;DHT22;8301;51.440;6.610;2023-07-13T14:41:24;21.70;1.00
16384;DHT22;8301;51.440;6.610;2023-07-13T14:43:51;21.70;1.00
16384;DHT22;8301;51.440;6.610;2023-07-13T14:46:27;21.70;1.00
16384;DHT22;8301;51.440;6.610;2023-07-13T14:48:49;21.70;1.00
16384;DHT22;8301;51.440;6.610;2023-07-13T14:51:15;21.80;1.00
16384;DHT22;8301;51.440;6.610;2023-07-13T14:53:43;21.80;1.00
16384;DHT22;8301;51.440;6.610;2023-07-13T14:56:10;21.80;1.00
16384;DHT22;8301;51.440;6.610;2023-07-13T14:58:37;21.30;1.00
16384;DHT22;8301;51.440;6.610;2023-07-13T15:01:07;20.60;99.90
16384;DHT22;8301;51.440;6.610;2023-07-13T15:03:34;19.90;99.90
16384;DHT22;8301;51.440;6.610;2023-07-13T15:06:00;19.20;99.90
16384;DHT22;8301;51.440;6.610;2023-07-13T15:08:28;18.70;1.00
16384;DHT22;8301;51.440;6.610;2023-07-13T15:10:55;18.30;99.90
16384;DHT22;8301;51.440;6.610;2023-07-13T15:13:25;17.90;1.00
16384;DHT22;8301;51.440;6.610;2023-07-13T15:15:52;17.70;99.90
16384;DHT22;8301;51.440;6.610;2023-07-13T15:18:21;17.70;1.00
16384;DHT22;8301;51.440;6.610;2023-07-13T15:20:49;17.60;99.90
16384;DHT22;8301;51.440;6.610;2023-07-13T15:23:16;17.50;99.90
16384;DHT22;8301;51.440;6.610;2023-07-13T15:25:43;17.30;1.00
16384;DHT22;8301;51.440;6.610;2023-07-13T15:28:11;17.40;1.00
16384;DHT22;8301;51.440;6.610;2023-07-13T15:30:45;17.30;84.00
16384;DHT22;8301;51.440;6.610;2023-07-13T15:33:17;17.50;99.90
16384;DHT22;8301;51.440;6.610;2023-07-13T15:35:45;17.60;99.90
16384;DHT22;8301;51.440;6.610;2023-07-13T15:38:21;17.70;99.90
16384;DHT22;8301;51.440;6.610;2023-07-13T15:40:48;17.80;1.20
16384;DHT22;8301;51.440;6.610;2023-07-13T15:43:16;17.80;1.00
16384;DHT22;8301;51.440;6.610;2023-07-13T15:45:44;17.90;1.00
16384;DHT22;8301;51.440;6.610;2023-07-13T15:48:16;18.00;99.90
16384;DHT22;8301;51.440;6.610;2023-07-13T15:50:48;18.20;1.00
16384;DHT22;8301;51.440;6.610;2023-07-13T15:53:14;18.20;99.90
16384;DHT22;8301;51.440;6.610;2023-07-13T15:58:32;18.10;99.90
16384;DHT22;8301;51.440;6.610;2023-07-13T16:00:59;18.00;1.00
16384;DHT22;8301;51.440;6.610;2023-07-13T16:03:26;18.10;99.90
16384;DHT22;8301;51.440;6.610;2023-07-13T16:05:53;18.20;99.90
16384;DHT22;8301;51.440;6.610;2023-07-13T16:08:23;18.30;1.00
16384;DHT22;8301;51.440;6.610;2023-07-13T16:10:49;18.50;1.00
16384;DHT22;8301;51.440;6.610;2023-07-13T16:13:16;18.60;1.00
16384;DHT22;8301;51.440;6.610;2023-07-13T16:15:45;18.50;99.90
16384;DHT22;8301;51.440;6.610;2023-07-13T16:18:11;18.60;1.00
16384;DHT22;8301;51.440;6.610;2023-07-13T16:20:38;18.60;1.00
16384;DHT22;8301;51.440;6.610;2023-07-13T16:23:07;18.60;1.00
16384;DHT22;8301;51.440;6.610;2023-07-13T16:25:40;18.60;1.00
16384;DHT22;8301;51.440;6.610;2023-07-13T16:28:09;18.50;1.00
16384;DHT22;8301;51.440;6.610;2023-07-13T16:30:36;18.60;1.00
16384;DHT22;8301;51.440;6.610;2023-07-13T16:33:03;18.70;99.90
16384;DHT22;8301;51.440;6.610;2023-07-13T16:35:32;18.70;99.90
16384;DHT22;8301;51.440;6.610;2023-07-13T16:38:02;18.80;99.90
16384;DHT22;8301;51.440;6.610;2023-07-13T16:40:32;18.80;68.70
16384;DHT22;8301;51.440;6.610;2023-07-13T16:42:58;18.90;99.90
16384;DHT22;8301;51.440;6.610;2023-07-13T16:45:25;18.90;1.30